N894AF KSLC-KCNY
Flight info
| Callsign | N894AF |
|---|---|
| Flight time | 0h 35m |
| Altitude | 27000 |
| Route | SLC4 FFU PUC |
| Aircraft | PC12/L-SDFGRWY/S |
Departure
| Time | 2026-05-04 21:17 |
|---|---|
| Airport | Salt Lake City International Airport (KSLC) |
Arrival
| Time | 2026-05-04 21:52 |
|---|---|
| Airport | Canyonlands Regional Airport (KCNY) |
| Time | Latitude | Longitude | Altitude | Speed | Heading |
|---|---|---|---|---|---|
| 2026-05-04 20:59 | 40.77610 | -111.95856 | 4230 ft | 0 kts | 0° |
| 2026-05-04 21:04 | 40.77609 | -111.95856 | 4249 ft | 0 kts | 0° |
| 2026-05-04 21:11 | 40.77627 | -111.95858 | 4231 ft | 6 kts | 341° |
| 2026-05-04 21:11 | 40.77636 | -111.95912 | 4230 ft | 7 kts | 269° |
| 2026-05-04 21:11 | 40.77636 | -111.95991 | 4231 ft | 10 kts | 271° |
| 2026-05-04 21:11 | 40.77662 | -111.96064 | 4230 ft | 11 kts | 356° |
| 2026-05-04 21:12 | 40.77752 | -111.96067 | 4230 ft | 14 kts | 1° |
| 2026-05-04 21:12 | 40.77851 | -111.96038 | 4230 ft | 15 kts | 44° |
| 2026-05-04 21:12 | 40.77930 | -111.96003 | 4230 ft | 12 kts | 360° |
| 2026-05-04 21:12 | 40.78024 | -111.96004 | 4230 ft | 15 kts | 359° |
| 2026-05-04 21:13 | 40.78134 | -111.96005 | 4230 ft | 17 kts | 359° |
| 2026-05-04 21:13 | 40.78257 | -111.96006 | 4230 ft | 19 kts | 360° |
| 2026-05-04 21:13 | 40.78391 | -111.96004 | 4230 ft | 20 kts | 359° |
| 2026-05-04 21:13 | 40.78525 | -111.96004 | 4230 ft | 18 kts | 359° |
| 2026-05-04 21:14 | 40.78656 | -111.96003 | 4231 ft | 19 kts | 360° |
| 2026-05-04 21:14 | 40.78794 | -111.96003 | 4231 ft | 20 kts | 360° |
| 2026-05-04 21:14 | 40.78937 | -111.96003 | 4231 ft | 21 kts | 1° |
| 2026-05-04 21:14 | 40.79086 | -111.96004 | 4231 ft | 22 kts | 359° |
| 2026-05-04 21:15 | 40.79241 | -111.96003 | 4230 ft | 22 kts | 360° |
| 2026-05-04 21:15 | 40.79399 | -111.96003 | 4230 ft | 23 kts | 0° |
| 2026-05-04 21:15 | 40.79552 | -111.96004 | 4230 ft | 21 kts | 0° |
| 2026-05-04 21:15 | 40.79692 | -111.96002 | 4230 ft | 19 kts | 0° |
| 2026-05-04 21:16 | 40.79821 | -111.96002 | 4230 ft | 18 kts | 0° |
| 2026-05-04 21:16 | 40.79890 | -111.96069 | 4230 ft | 15 kts | 270° |
| 2026-05-04 21:16 | 40.79876 | -111.96194 | 4228 ft | 10 kts | 240° |
| 2026-05-04 21:16 | 40.79751 | -111.96209 | 4228 ft | 37 kts | 180° |
| 2026-05-04 21:17 | 40.79351 | -111.96220 | 4229 ft | 80 kts | 179° |
| 2026-05-04 21:17 | 40.78691 | -111.96176 | 4361 ft | 104 kts | 183° |
| 2026-05-04 21:17 | 40.77917 | -111.96146 | 4651 ft | 120 kts | 188° |
| 2026-05-04 21:17 | 40.77004 | -111.96173 | 4934 ft | 144 kts | 187° |
| 2026-05-04 21:18 | 40.75910 | -111.96242 | 5272 ft | 168 kts | 186° |
| 2026-05-04 21:18 | 40.74703 | -111.96318 | 5763 ft | 178 kts | 182° |
| 2026-05-04 21:18 | 40.73464 | -111.96215 | 6320 ft | 175 kts | 177° |
| 2026-05-04 21:18 | 40.72279 | -111.96088 | 6948 ft | 168 kts | 180° |
| 2026-05-04 21:19 | 40.71110 | -111.96035 | 7542 ft | 169 kts | 181° |
| 2026-05-04 21:19 | 40.69936 | -111.95998 | 8199 ft | 168 kts | 181° |
| 2026-05-04 21:19 | 40.68782 | -111.95948 | 8830 ft | 168 kts | 181° |
| 2026-05-04 21:19 | 40.67607 | -111.95893 | 9521 ft | 170 kts | 181° |
| 2026-05-04 21:20 | 40.66423 | -111.95838 | 10173 ft | 171 kts | 181° |
| 2026-05-04 21:20 | 40.65226 | -111.95782 | 10815 ft | 173 kts | 180° |
| 2026-05-04 21:20 | 40.64023 | -111.95727 | 11455 ft | 174 kts | 180° |
| 2026-05-04 21:20 | 40.62803 | -111.95671 | 12097 ft | 176 kts | 179° |
| 2026-05-04 21:21 | 40.61569 | -111.95615 | 12730 ft | 178 kts | 179° |
| 2026-05-04 21:21 | 40.60325 | -111.95558 | 13353 ft | 180 kts | 178° |
| 2026-05-04 21:21 | 40.59071 | -111.95500 | 13925 ft | 181 kts | 178° |
| 2026-05-04 21:21 | 40.57806 | -111.95442 | 14470 ft | 182 kts | 178° |
| 2026-05-04 21:22 | 40.56539 | -111.95383 | 15011 ft | 183 kts | 178° |
| 2026-05-04 21:22 | 40.55266 | -111.95323 | 15556 ft | 184 kts | 178° |
| 2026-05-04 21:22 | 40.53986 | -111.95265 | 16096 ft | 184 kts | 178° |
| 2026-05-04 21:22 | 40.52701 | -111.95206 | 16638 ft | 185 kts | 178° |
| 2026-05-04 21:23 | 40.51411 | -111.95147 | 17168 ft | 186 kts | 178° |
| 2026-05-04 21:23 | 40.50128 | -111.95088 | 17701 ft | 187 kts | 178° |
| 2026-05-04 21:23 | 40.48824 | -111.95028 | 18212 ft | 188 kts | 178° |
| 2026-05-04 21:23 | 40.47513 | -111.94969 | 18669 ft | 189 kts | 178° |
| 2026-05-04 21:24 | 40.46192 | -111.94908 | 19108 ft | 191 kts | 178° |
| 2026-05-04 21:24 | 40.44858 | -111.94847 | 19544 ft | 193 kts | 178° |
| 2026-05-04 21:24 | 40.43511 | -111.94785 | 19989 ft | 194 kts | 178° |
| 2026-05-04 21:24 | 40.42156 | -111.94723 | 20438 ft | 195 kts | 178° |
| 2026-05-04 21:25 | 40.40789 | -111.94661 | 20872 ft | 198 kts | 178° |
| 2026-05-04 21:25 | 40.39410 | -111.94598 | 21318 ft | 199 kts | 178° |
| 2026-05-04 21:25 | 40.38019 | -111.94534 | 21761 ft | 201 kts | 178° |
| 2026-05-04 21:25 | 40.36614 | -111.94470 | 22222 ft | 203 kts | 178° |
| 2026-05-04 21:26 | 40.35198 | -111.94405 | 22682 ft | 205 kts | 178° |
| 2026-05-04 21:26 | 40.33788 | -111.94341 | 23145 ft | 206 kts | 178° |
| 2026-05-04 21:26 | 40.32351 | -111.94275 | 23564 ft | 208 kts | 179° |
| 2026-05-04 21:26 | 40.30904 | -111.94209 | 23975 ft | 208 kts | 180° |
| 2026-05-04 21:27 | 40.29452 | -111.94143 | 24379 ft | 209 kts | 180° |
| 2026-05-04 21:27 | 40.28018 | -111.93740 | 24759 ft | 215 kts | 159° |
| 2026-05-04 21:27 | 40.26764 | -111.92633 | 25156 ft | 222 kts | 138° |
| 2026-05-04 21:27 | 40.25802 | -111.91025 | 25539 ft | 227 kts | 130° |
| 2026-05-04 21:28 | 40.24871 | -111.89335 | 25913 ft | 231 kts | 130° |
| 2026-05-04 21:28 | 40.23921 | -111.87623 | 26295 ft | 234 kts | 131° |
| 2026-05-04 21:28 | 40.22958 | -111.85897 | 26679 ft | 236 kts | 131° |
| 2026-05-04 21:28 | 40.22316 | -111.84745 | 26942 ft | 238 kts | 132° |
| 2026-05-04 21:29 | 40.21334 | -111.82984 | 27238 ft | 240 kts | 133° |
| 2026-05-04 21:29 | 40.20347 | -111.81214 | 27398 ft | 242 kts | 133° |
| 2026-05-04 21:29 | 40.19348 | -111.79426 | 27534 ft | 244 kts | 133° |
| 2026-05-04 21:29 | 40.18363 | -111.77653 | 27881 ft | 236 kts | 133° |
| 2026-05-04 21:30 | 40.17405 | -111.75933 | 28191 ft | 231 kts | 134° |
| 2026-05-04 21:30 | 40.16456 | -111.74237 | 28426 ft | 231 kts | 134° |
| 2026-05-04 21:30 | 40.15513 | -111.72556 | 28660 ft | 231 kts | 135° |
| 2026-05-04 21:30 | 40.14240 | -111.70281 | 28843 ft | 239 kts | 135° |
| 2026-05-04 21:31 | 40.12535 | -111.67250 | 28856 ft | 257 kts | 134° |
| 2026-05-04 21:31 | 40.11457 | -111.65321 | 28857 ft | 267 kts | 134° |
| 2026-05-04 21:31 | 40.10339 | -111.63326 | 28857 ft | 277 kts | 134° |
| 2026-05-04 21:32 | 40.09185 | -111.61268 | 28859 ft | 284 kts | 133° |
| 2026-05-04 21:32 | 40.08006 | -111.59166 | 28857 ft | 289 kts | 133° |
| 2026-05-04 21:32 | 40.06808 | -111.57033 | 28854 ft | 293 kts | 133° |
| 2026-05-04 21:32 | 40.05590 | -111.54865 | 28844 ft | 297 kts | 133° |
| 2026-05-04 21:33 | 40.04361 | -111.52680 | 28836 ft | 300 kts | 133° |
| 2026-05-04 21:33 | 40.01875 | -111.48262 | 28821 ft | 303 kts | 133° |
| 2026-05-04 21:34 | 39.99381 | -111.43838 | 28809 ft | 304 kts | 133° |
| 2026-05-04 21:34 | 39.96882 | -111.39412 | 28804 ft | 302 kts | 133° |
| 2026-05-04 21:35 | 39.94400 | -111.35022 | 28795 ft | 300 kts | 133° |
| 2026-05-04 21:35 | 39.93161 | -111.32833 | 28789 ft | 300 kts | 133° |
| 2026-05-04 21:35 | 39.91923 | -111.30648 | 28791 ft | 299 kts | 133° |
| 2026-05-04 21:35 | 39.90688 | -111.28468 | 28797 ft | 299 kts | 133° |
| 2026-05-04 21:36 | 39.89453 | -111.26292 | 28798 ft | 299 kts | 133° |
| 2026-05-04 21:36 | 39.88219 | -111.24117 | 28804 ft | 298 kts | 133° |
| 2026-05-04 21:36 | 39.86987 | -111.21948 | 28803 ft | 298 kts | 133° |
| 2026-05-04 21:36 | 39.85756 | -111.19782 | 28808 ft | 297 kts | 133° |
| 2026-05-04 21:37 | 39.84527 | -111.17621 | 28814 ft | 297 kts | 133° |
| 2026-05-04 21:37 | 39.83312 | -111.15486 | 28816 ft | 298 kts | 133° |
| 2026-05-04 21:37 | 39.82075 | -111.13314 | 28814 ft | 298 kts | 133° |
| 2026-05-04 21:37 | 39.80842 | -111.11150 | 28827 ft | 298 kts | 133° |
| 2026-05-04 21:38 | 39.79603 | -111.08979 | 28831 ft | 299 kts | 133° |
| 2026-05-04 21:38 | 39.78362 | -111.06805 | 28843 ft | 300 kts | 133° |
| 2026-05-04 21:38 | 39.77120 | -111.04629 | 28847 ft | 300 kts | 133° |
| 2026-05-04 21:39 | 39.74624 | -111.00263 | 28869 ft | 301 kts | 133° |
| 2026-05-04 21:39 | 39.72119 | -110.95887 | 28879 ft | 302 kts | 133° |
| 2026-05-04 21:40 | 39.69608 | -110.91506 | 28898 ft | 303 kts | 133° |
| 2026-05-04 21:40 | 39.67106 | -110.87147 | 28914 ft | 304 kts | 133° |
| 2026-05-04 21:41 | 39.64575 | -110.82746 | 28921 ft | 305 kts | 133° |
| 2026-05-04 21:41 | 39.62031 | -110.78326 | 28924 ft | 306 kts | 133° |
| 2026-05-04 21:42 | 39.59325 | -110.74138 | 28921 ft | 299 kts | 144° |
| 2026-05-04 21:42 | 39.57794 | -110.72310 | 28924 ft | 299 kts | 145° |
| 2026-05-04 21:42 | 39.56264 | -110.70476 | 28922 ft | 300 kts | 145° |
| 2026-05-04 21:42 | 39.54736 | -110.68637 | 28920 ft | 300 kts | 145° |
| 2026-05-04 21:43 | 39.53204 | -110.66796 | 28921 ft | 299 kts | 145° |
| 2026-05-04 21:43 | 39.51689 | -110.64980 | 28813 ft | 298 kts | 146° |
| 2026-05-04 21:43 | 39.50148 | -110.63142 | 28526 ft | 302 kts | 145° |
| 2026-05-04 21:43 | 39.48587 | -110.61276 | 28137 ft | 309 kts | 144° |
| 2026-05-04 21:44 | 39.46998 | -110.59372 | 27729 ft | 314 kts | 144° |
| 2026-05-04 21:44 | 39.45410 | -110.57468 | 27328 ft | 313 kts | 144° |
| 2026-05-04 21:44 | 39.43821 | -110.55564 | 26926 ft | 310 kts | 144° |
| 2026-05-04 21:44 | 39.42242 | -110.53679 | 26527 ft | 307 kts | 144° |
| 2026-05-04 21:45 | 39.40675 | -110.51810 | 26137 ft | 305 kts | 144° |
| 2026-05-04 21:45 | 39.39122 | -110.49959 | 25753 ft | 303 kts | 143° |
| 2026-05-04 21:45 | 39.37575 | -110.48113 | 25366 ft | 301 kts | 143° |
| 2026-05-04 21:45 | 39.36039 | -110.46282 | 24998 ft | 300 kts | 143° |
| 2026-05-04 21:46 | 39.32069 | -110.41561 | 24055 ft | 297 kts | 143° |
| 2026-05-04 21:46 | 39.28308 | -110.37094 | 23031 ft | 297 kts | 142° |
| 2026-05-04 21:46 | 39.16485 | -110.23087 | 19396 ft | 285 kts | 141° |
| 2026-05-04 21:46 | 39.05071 | -110.09617 | 15810 ft | 272 kts | 140° |
| 2026-05-04 21:47 | 38.98884 | -110.02352 | 13883 ft | 267 kts | 140° |
| 2026-05-04 21:47 | 38.97532 | -110.00728 | 13467 ft | 265 kts | 135° |
| 2026-05-04 21:47 | 38.91971 | -109.88133 | 10763 ft | 264 kts | 120° |
| 2026-05-04 21:47 | 38.91136 | -109.86040 | 10340 ft | 263 kts | 120° |
| 2026-05-04 21:48 | 38.90306 | -109.83949 | 9923 ft | 261 kts | 120° |
| 2026-05-04 21:48 | 38.89494 | -109.81874 | 9483 ft | 260 kts | 119° |
| 2026-05-04 21:48 | 38.88679 | -109.79820 | 8996 ft | 255 kts | 122° |
| 2026-05-04 21:48 | 38.87698 | -109.77975 | 8597 ft | 246 kts | 131° |
| 2026-05-04 21:49 | 38.86619 | -109.76339 | 8195 ft | 234 kts | 134° |
| 2026-05-04 21:49 | 38.85605 | -109.74802 | 7768 ft | 224 kts | 134° |
| 2026-05-04 21:49 | 38.84634 | -109.73290 | 7410 ft | 216 kts | 134° |
| 2026-05-04 21:49 | 38.83658 | -109.71886 | 7143 ft | 204 kts | 140° |
| 2026-05-04 21:50 | 38.82552 | -109.70920 | 6977 ft | 179 kts | 162° |
| 2026-05-04 21:50 | 38.81497 | -109.70688 | 6846 ft | 135 kts | 188° |
| 2026-05-04 21:50 | 38.80618 | -109.70833 | 6594 ft | 124 kts | 193° |
| 2026-05-04 21:50 | 38.79798 | -109.71099 | 6339 ft | 121 kts | 204° |
| 2026-05-04 21:51 | 38.79066 | -109.71617 | 6064 ft | 119 kts | 216° |
| 2026-05-04 21:51 | 38.78470 | -109.72245 | 5838 ft | 104 kts | 223° |
| 2026-05-04 21:51 | 38.77951 | -109.72843 | 5596 ft | 96 kts | 223° |
| 2026-05-04 21:51 | 38.77492 | -109.73360 | 5354 ft | 83 kts | 218° |
| 2026-05-04 21:52 | 38.77055 | -109.73828 | 5053 ft | 81 kts | 214° |
| 2026-05-04 21:52 | 38.76634 | -109.74281 | 4763 ft | 76 kts | 213° |
| 2026-05-04 21:52 | 38.76241 | -109.74701 | 4587 ft | 71 kts | 211° |
| 2026-05-04 21:52 | 38.75921 | -109.75030 | 4565 ft | 35 kts | 219° |
| 2026-05-04 21:53 | 38.75831 | -109.75130 | 4565 ft | 15 kts | 219° |
| 2026-05-04 21:53 | 38.75761 | -109.75203 | 4566 ft | 11 kts | 219° |
| 2026-05-04 21:53 | 38.75708 | -109.75185 | 4564 ft | 9 kts | 131° |
| 2026-05-04 21:53 | 38.75697 | -109.75168 | 4565 ft | 0 kts | 129° |
| 2026-05-04 21:54 | 38.75695 | -109.75164 | 4565 ft | 3 kts | 123° |
| 2026-05-04 21:54 | 38.75730 | -109.75098 | 4565 ft | 15 kts | 40° |
| 2026-05-04 21:54 | 38.75832 | -109.74990 | 4565 ft | 22 kts | 40° |
| 2026-05-04 21:55 | 38.75954 | -109.74862 | 4567 ft | 19 kts | 40° |
| 2026-05-04 21:55 | 38.76046 | -109.74764 | 4563 ft | 12 kts | 37° |
| 2026-05-04 21:55 | 38.76079 | -109.74665 | 4563 ft | 10 kts | 78° |
| 2026-05-04 21:55 | 38.76090 | -109.74583 | 4563 ft | 8 kts | 79° |
| 2026-05-04 21:56 | 38.76120 | -109.74531 | 4565 ft | 4 kts | 71° |
| 2026-05-04 21:56 | 38.76122 | -109.74522 | 4563 ft | 0 kts | 78° |